Time;durP1;ratioP1;P1;durP2;ratioP2;P2;SDS_P1;SDS_P2;PMS_P1;PMS_P2;Temp;Humidity;BMP_temperature;BMP_pressure;BME280_temperature;BME280_humidity;BME280_pressure;Samples;Min_cycle;Max_cycle;Signal;HPM_P1;HPM_P2
2024/02/08 00:01:32;;;;;;;11.98;6.45;;;;;;;;;;4995807;28;20030;-65
2024/02/08 00:03:58;;;;;;;10.43;6.03;;;;;;;;;;4998763;28;20026;-65
2024/02/08 00:06:24;;;;;;;13.15;5.10;;;;;;;;;;4997077;28;20057;-65
2024/02/08 00:08:53;;;;;;;11.75;5.70;;;;;;;;;;4995940;28;20034;-66
2024/02/08 00:11:19;;;;;;;11.38;5.40;;;;;;;;;;4993943;28;20022;-65
2024/02/08 00:13:45;;;;;;;8.43;4.85;;;;;;;;;;4995262;28;21977;-65
2024/02/08 00:16:11;;;;;;;11.10;5.90;;;;;;;;;;4997123;28;20068;-65
2024/02/08 00:18:37;;;;;;;7.70;5.07;;;;;;;;;;4991156;28;20460;-65
2024/02/08 00:21:03;;;;;;;10.05;4.97;;;;;;;;;;4994867;28;20101;-64
2024/02/08 00:23:29;;;;;;;8.30;4.88;;;;;;;;;;4999203;28;20018;-65
2024/02/08 00:25:55;;;;;;;8.48;5.18;;;;;;;;;;4993243;28;20104;-65
2024/02/08 00:28:21;;;;;;;7.82;4.57;;;;;;;;;;4997776;28;20464;-64
2024/02/08 00:30:47;;;;;;;7.95;3.95;;;;;;;;;;4994782;28;20034;-65
2024/02/08 00:33:13;;;;;;;10.65;4.95;;;;;;;;;;4994632;28;20121;-65
2024/02/08 00:35:39;;;;;;;6.60;4.10;;;;;;;;;;4999171;28;20141;-65
2024/02/08 00:38:05;;;;;;;6.35;3.63;;;;;;;;;;4997255;28;20026;-65
2024/02/08 00:40:31;;;;;;;6.07;4.00;;;;;;;;;;4995454;28;20049;-65
2024/02/08 00:42:57;;;;;;;5.20;3.55;;;;;;;;;;4992809;28;20485;-65
2024/02/08 00:45:24;;;;;;;7.15;4.10;;;;;;;;;;4994867;28;20575;-63
2024/02/08 00:47:50;;;;;;;5.78;3.72;;;;;;;;;;4992676;28;20030;-64
2024/02/08 00:50:16;;;;;;;5.80;4.28;;;;;;;;;;5000475;28;20507;-65
2024/02/08 00:52:42;;;;;;;8.07;3.90;;;;;;;;;;4995416;28;20065;-65
2024/02/08 00:55:09;;;;;;;5.53;3.97;;;;;;;;;;4989976;28;20508;-65
2024/02/08 00:57:35;;;;;;;9.80;4.32;;;;;;;;;;4992104;28;20034;-65
2024/02/08 01:00:01;;;;;;;7.95;4.43;;;;;;;;;;4997109;28;20390;-65
2024/02/08 01:02:28;;;;;;;7.95;4.63;;;;;;;;;;4990293;28;20030;-64
2024/02/08 01:04:54;;;;;;;11.27;4.75;;;;;;;;;;4999131;28;20477;-65
2024/02/08 01:07:20;;;;;;;9.15;4.75;;;;;;;;;;4985096;28;20026;-65
2024/02/08 01:09:46;;;;;;;11.63;5.45;;;;;;;;;;4999276;28;20029;-65
2024/02/08 01:12:12;;;;;;;16.10;5.75;;;;;;;;;;4995230;28;20117;-65
2024/02/08 01:14:38;;;;;;;12.80;6.53;;;;;;;;;;4998229;28;20407;-65
2024/02/08 01:17:07;;;;;;;13.20;5.40;;;;;;;;;;4993770;28;20045;-65
2024/02/08 01:19:34;;;;;;;9.45;5.85;;;;;;;;;;4998508;28;20041;-65
2024/02/08 01:22:00;;;;;;;10.63;6.63;;;;;;;;;;4993603;28;20370;-64
2024/02/08 01:24:28;;;;;;;10.52;6.50;;;;;;;;;;5001544;28;20079;-65
2024/02/08 01:26:56;;;;;;;11.93;6.30;;;;;;;;;;4995104;28;20029;-64
2024/02/08 01:29:24;;;;;;;17.00;6.82;;;;;;;;;;4989189;28;20040;-63
2024/02/08 01:31:51;;;;;;;13.75;8.00;;;;;;;;;;4988655;28;20030;-65
2024/02/08 01:34:17;;;;;;;12.77;8.55;;;;;;;;;;5001133;28;20088;-65
2024/02/08 01:36:43;;;;;;;20.40;8.23;;;;;;;;;;4998218;28;20034;-65
2024/02/08 01:39:13;;;;;;;17.63;8.23;;;;;;;;;;4999488;28;20030;-65
2024/02/08 01:41:45;;;;;;;15.45;7.75;;;;;;;;;;4991604;28;20367;-65
2024/02/08 01:44:13;;;;;;;12.93;8.10;;;;;;;;;;4997424;28;20022;-65
2024/02/08 01:46:39;;;;;;;13.90;8.00;;;;;;;;;;4994783;28;20046;-65
2024/02/08 01:49:06;;;;;;;20.90;8.80;;;;;;;;;;4996379;28;20034;-65
2024/02/08 01:51:32;;;;;;;16.20;7.63;;;;;;;;;;4991286;28;20116;-65
2024/02/08 01:54:01;;;;;;;14.57;8.50;;;;;;;;;;4994143;28;20408;-65
2024/02/08 01:56:27;;;;;;;17.17;8.60;;;;;;;;;;4989496;28;20079;-65
2024/02/08 01:58:53;;;;;;;14.48;9.02;;;;;;;;;;4996665;28;20762;-65
2024/02/08 02:01:22;;;;;;;15.70;8.98;;;;;;;;;;4995595;28;20080;-65
2024/02/08 02:03:48;;;;;;;17.45;9.88;;;;;;;;;;4993942;28;20490;-65
2024/02/08 02:06:14;;;;;;;25.27;9.75;;;;;;;;;;4996543;28;20121;-65
2024/02/08 02:08:41;;;;;;;16.95;9.43;;;;;;;;;;4988291;28;20161;-65
2024/02/08 02:11:15;;;;;;;15.20;9.45;;;;;;;;;;4993463;28;20049;-63
2024/02/08 02:13:41;;;;;;;25.35;9.95;;;;;;;;;;4991888;28;20037;-65
2024/02/08 02:16:07;;;;;;;21.20;9.93;;;;;;;;;;4989685;28;20030;-65
2024/02/08 02:18:33;;;;;;;18.60;10.45;;;;;;;;;;4992912;28;20118;-64
2024/02/08 02:20:59;;;;;;;19.45;10.63;;;;;;;;;;4991472;28;20022;-64
2024/02/08 02:23:25;;;;;;;21.15;10.63;;;;;;;;;;4994511;28;20026;-64
2024/02/08 02:25:52;;;;;;;19.30;10.25;;;;;;;;;;4985520;28;20065;-65
2024/02/08 02:28:18;;;;;;;14.30;8.90;;;;;;;;;;4992524;28;20041;-65
2024/02/08 02:30:44;;;;;;;18.90;9.68;;;;;;;;;;4990329;28;20451;-65
2024/02/08 02:33:13;;;;;;;19.05;10.88;;;;;;;;;;4994815;28;20030;-64
2024/02/08 02:35:39;;;;;;;24.55;11.38;;;;;;;;;;4995483;28;20118;-64
2024/02/08 02:38:12;;;;;;;24.83;12.07;;;;;;;;;;4992082;28;20042;-64
2024/02/08 02:40:41;;;;;;;21.70;10.63;;;;;;;;;;4991683;28;20447;-64
2024/02/08 02:43:09;;;;;;;21.02;11.63;;;;;;;;;;4992657;28;20022;-63
2024/02/08 02:45:35;;;;;;;23.65;11.27;;;;;;;;;;4988352;28;20122;-64
2024/02/08 02:48:02;;;;;;;20.85;9.95;;;;;;;;;;4997338;28;20023;-65
2024/02/08 02:50:28;;;;;;;20.00;11.32;;;;;;;;;;4996771;28;20030;-65
2024/02/08 02:52:55;;;;;;;23.40;10.95;;;;;;;;;;4991320;28;20092;-65
2024/02/08 02:55:22;;;;;;;24.92;11.88;;;;;;;;;;4983089;28;20541;-64
2024/02/08 02:57:49;;;;;;;20.77;10.63;;;;;;;;;;4991673;28;20026;-65
2024/02/08 03:00:21;;;;;;;25.65;11.13;;;;;;;;;;4994093;28;20040;-65
2024/02/08 03:02:57;;;;;;;26.02;12.27;;;;;;;;;;4988990;28;20030;-65
2024/02/08 03:05:23;;;;;;;28.52;11.55;;;;;;;;;;4991140;28;20032;-65
2024/02/08 03:07:49;;;;;;;22.27;10.80;;;;;;;;;;4995218;28;20058;-65
2024/02/08 03:10:19;;;;;;;23.00;11.30;;;;;;;;;;4995069;28;20124;-64
2024/02/08 03:12:45;;;;;;;22.27;10.70;;;;;;;;;;4989529;28;20034;-65
2024/02/08 03:15:12;;;;;;;23.73;10.75;;;;;;;;;;4993626;28;20037;-65
2024/02/08 03:17:38;;;;;;;21.80;10.93;;;;;;;;;;4986529;28;20027;-65
2024/02/08 03:20:05;;;;;;;24.08;11.18;;;;;;;;;;4994362;28;20022;-65
2024/02/08 03:22:34;;;;;;;18.58;10.05;;;;;;;;;;4994048;28;20481;-65
2024/02/08 03:25:06;;;;;;;21.50;10.55;;;;;;;;;;4991871;28;20401;-65
2024/02/08 03:27:33;;;;;;;21.30;10.45;;;;;;;;;;4997819;28;20033;-65
2024/02/08 03:30:00;;;;;;;23.85;10.88;;;;;;;;;;4992997;28;20026;-65
2024/02/08 03:32:27;;;;;;;27.15;12.38;;;;;;;;;;4997472;28;20034;-66
2024/02/08 03:34:53;;;;;;;27.05;13.82;;;;;;;;;;4992844;28;20022;-65
2024/02/08 03:37:22;;;;;;;22.33;12.18;;;;;;;;;;4997551;28;20026;-65
2024/02/08 03:39:48;;;;;;;31.40;13.50;;;;;;;;;;4990530;28;20100;-65
2024/02/08 03:42:16;;;;;;;25.25;13.07;;;;;;;;;;4998270;28;20113;-65
2024/02/08 03:44:43;;;;;;;24.23;12.68;;;;;;;;;;4999390;28;20018;-65
2024/02/08 03:47:09;;;;;;;25.77;12.45;;;;;;;;;;4998781;28;20101;-66
2024/02/08 03:49:35;;;;;;;27.27;12.65;;;;;;;;;;4997274;28;20105;-65
2024/02/08 03:52:02;;;;;;;27.63;11.50;;;;;;;;;;4996759;28;20038;-65
2024/02/08 03:54:31;;;;;;;28.38;12.80;;;;;;;;;;4989967;28;20097;-66
2024/02/08 03:57:04;;;;;;;27.40;12.00;;;;;;;;;;4991334;28;20030;-64
2024/02/08 03:59:30;;;;;;;29.55;13.85;;;;;;;;;;4989372;28;20038;-65
2024/02/08 04:02:00;;;;;;;28.73;12.63;;;;;;;;;;4986787;28;20439;-64
2024/02/08 04:04:29;;;;;;;27.10;12.55;;;;;;;;;;4983249;28;20397;-65
2024/02/08 04:07:14;;;;;;;27.92;14.45;;;;;;;;;;4983827;28;20034;-65
2024/02/08 04:09:48;;;;;;;29.13;12.45;;;;;;;;;;4982694;28;20030;-63
2024/02/08 04:53:46;;;;;;;32.72;15.48;;;;;;;;;;4997703;28;20049;-65
2024/02/08 04:56:15;;;;;;;38.13;16.02;;;;;;;;;;4995421;28;21514;-65
2024/02/08 04:58:45;;;;;;;34.20;14.43;;;;;;;;;;5000555;28;20066;-65
2024/02/08 05:01:11;;;;;;;27.27;14.05;;;;;;;;;;4996022;28;20023;-65
2024/02/08 05:03:42;;;;;;;31.63;13.57;;;;;;;;;;4999698;28;20023;-65
2024/02/08 05:06:14;;;;;;;33.60;15.45;;;;;;;;;;4991626;28;20101;-65
2024/02/08 05:08:43;;;;;;;30.92;15.05;;;;;;;;;;4995597;28;20577;-65
2024/02/08 05:11:09;;;;;;;37.22;16.13;;;;;;;;;;4990432;28;20081;-65
2024/02/08 05:13:42;;;;;;;37.92;16.27;;;;;;;;;;4995911;28;20042;-65
2024/02/08 05:16:14;;;;;;;40.55;16.02;;;;;;;;;;4993164;28;20102;-65
2024/02/08 05:18:42;;;;;;;33.63;13.90;;;;;;;;;;4994356;28;20499;-65
2024/02/08 05:21:08;;;;;;;37.58;15.70;;;;;;;;;;4997415;28;20436;-62
2024/02/08 05:23:38;;;;;;;46.17;17.85;;;;;;;;;;4994261;28;20026;-64
2024/02/08 05:26:05;;;;;;;37.58;15.60;;;;;;;;;;4996566;28;20080;-65
2024/02/08 05:28:31;;;;;;;35.83;16.83;;;;;;;;;;4993166;28;20026;-65
2024/02/08 05:30:59;;;;;;;35.63;15.60;;;;;;;;;;4999618;28;20045;-64
2024/02/08 05:33:29;;;;;;;45.97;18.38;;;;;;;;;;4995549;28;20581;-65
2024/02/08 05:35:56;;;;;;;34.90;14.68;;;;;;;;;;4995498;28;20026;-65
2024/02/08 05:38:22;;;;;;;42.05;16.63;;;;;;;;;;4993222;28;20067;-65
2024/02/08 05:40:51;;;;;;;42.50;18.58;;;;;;;;;;4992861;28;20084;-65
2024/02/08 05:43:17;;;;;;;40.88;17.35;;;;;;;;;;4994588;28;20037;-65
2024/02/08 05:45:43;;;;;;;42.35;18.33;;;;;;;;;;4993990;28;20416;-65
2024/02/08 05:48:10;;;;;;;43.85;18.13;;;;;;;;;;4994545;28;20117;-64
2024/02/08 05:50:36;;;;;;;48.08;18.48;;;;;;;;;;4995865;28;20022;-65
2024/02/08 05:53:06;;;;;;;44.05;17.67;;;;;;;;;;4981174;28;20026;-63
2024/02/08 05:55:35;;;;;;;44.25;17.58;;;;;;;;;;4986821;28;20024;-65
2024/02/08 05:58:06;;;;;;;42.17;18.30;;;;;;;;;;4991738;28;20026;-65
2024/02/08 06:00:32;;;;;;;42.50;16.45;;;;;;;;;;4989386;28;20648;-65
2024/02/08 06:03:01;;;;;;;40.85;17.45;;;;;;;;;;4980623;28;20023;-65
2024/02/08 06:05:33;;;;;;;51.78;18.35;;;;;;;;;;4993859;28;20026;-65
2024/02/08 06:08:02;;;;;;;47.05;16.92;;;;;;;;;;4984999;28;20033;-64
2024/02/08 06:10:45;;;;;;;53.50;18.08;;;;;;;;;;4987871;28;20026;-65
2024/02/08 06:13:15;;;;;;;54.58;18.67;;;;;;;;;;4989595;28;20431;-63
2024/02/08 06:15:50;;;;;;;53.63;18.10;;;;;;;;;;4996529;28;20604;-65
2024/02/08 06:18:25;;;;;;;46.47;17.00;;;;;;;;;;4995402;28;20430;-65
2024/02/08 06:20:59;;;;;;;;;;;;;;;;;;4991720;28;20022;-63
2024/02/08 06:23:34;;;;;;;49.58;17.35;;;;;;;;;;4992083;28;19918;-66
2024/02/08 06:28:46;;;;;;;47.03;16.00;;;;;;;;;;4993103;28;20088;-64
2024/02/08 06:31:15;;;;;;;41.97;16.02;;;;;;;;;;4982631;28;20500;-65
2024/02/08 06:36:27;;;;;;;41.28;15.57;;;;;;;;;;4994913;28;20161;-66
2024/02/08 06:38:53;;;;;;;44.95;15.93;;;;;;;;;;4998951;28;20026;-64
2024/02/08 06:41:51;;;;;;;51.55;15.85;;;;;;;;;;4987655;28;20463;-65
2024/02/08 07:41:54;;;;;;;48.33;14.90;;;;;;;;;;4994459;28;20077;-65
2024/02/08 07:44:23;;;;;;;42.85;16.08;;;;;;;;;;4990386;28;20559;-64
2024/02/08 07:46:54;;;;;;;45.00;15.15;;;;;;;;;;4990315;28;20080;-64
2024/02/08 07:49:29;;;;;;;37.70;13.48;;;;;;;;;;4988910;28;20050;-66
2024/02/08 07:51:58;;;;;;;43.47;14.32;;;;;;;;;;4988170;28;20709;-65
2024/02/08 07:54:29;;;;;;;31.73;12.63;;;;;;;;;;4988850;28;20126;-65
2024/02/08 07:57:00;;;;;;;34.97;11.00;;;;;;;;;;4989577;28;20027;-63
2024/02/08 07:59:26;;;;;;;35.78;11.98;;;;;;;;;;4986363;28;20397;-65
2024/02/08 08:01:53;;;;;;;32.60;12.40;;;;;;;;;;4987924;28;20019;-66
2024/02/08 08:07:07;;;;;;;27.30;10.73;;;;;;;;;;4991531;28;20061;-64
2024/02/08 08:09:36;;;;;;;29.67;10.45;;;;;;;;;;4994187;28;20072;-66
2024/02/08 08:12:04;;;;;;;33.83;10.35;;;;;;;;;;4998489;28;20019;-66
2024/02/08 08:17:08;;;;;;;29.95;11.35;;;;;;;;;;4992139;28;20091;-64
2024/02/08 08:20:15;;;;;;;32.55;10.77;;;;;;;;;;4989557;28;20075;-64
2024/02/08 08:30:27;;;;;;;42.20;13.13;;;;;;;;;;4992128;28;20037;-66
2024/02/08 08:35:46;;;;;;;30.85;11.25;;;;;;;;;;5003006;28;20072;-65
2024/02/08 08:40:47;;;;;;;31.67;11.05;;;;;;;;;;4999921;28;20033;-65
2024/02/08 08:43:20;;;;;;;29.48;11.13;;;;;;;;;;4989209;28;20358;-64
2024/02/08 08:45:50;;;;;;;29.65;11.98;;;;;;;;;;4995601;28;20109;-65
2024/02/08 08:48:19;;;;;;;25.67;11.13;;;;;;;;;;4993381;28;20037;-66
2024/02/08 08:50:50;;;;;;;33.85;12.38;;;;;;;;;;4990516;28;20040;-65
2024/02/08 08:53:19;;;;;;;35.05;11.77;;;;;;;;;;4991984;28;20034;-64
2024/02/08 08:55:49;;;;;;;29.38;10.98;;;;;;;;;;4996994;28;20038;-65
2024/02/08 08:58:16;;;;;;;26.10;10.77;;;;;;;;;;4998141;28;20046;-65
2024/02/08 09:00:58;;;;;;;29.02;11.10;;;;;;;;;;4993393;28;20549;-65
2024/02/08 09:03:27;;;;;;;33.15;11.70;;;;;;;;;;4996930;28;20112;-65
2024/02/08 09:05:57;;;;;;;30.60;11.98;;;;;;;;;;4996726;28;20412;-65
2024/02/08 09:08:25;;;;;;;37.45;14.27;;;;;;;;;;4992688;28;20037;-64
2024/02/08 09:10:51;;;;;;;30.25;11.23;;;;;;;;;;4986984;28;20052;-63
2024/02/08 09:13:20;;;;;;;32.13;11.18;;;;;;;;;;4982628;28;20061;-64
2024/02/08 09:15:55;;;;;;;32.88;11.40;;;;;;;;;;4981482;28;20109;-65
2024/02/08 09:18:46;;;;;;;30.85;10.98;;;;;;;;;;4985476;28;20484;-64
2024/02/08 09:21:10;;;;;;;30.27;11.02;;;;;;;;;;4982037;28;20104;-63
2024/02/08 09:23:38;;;;;;;25.38;9.20;;;;;;;;;;4985729;28;20480;-64
2024/02/08 09:26:05;;;;;;;25.92;10.35;;;;;;;;;;4987548;28;20037;-63
2024/02/08 09:28:42;;;;;;;26.10;10.68;;;;;;;;;;4986122;28;20052;-65
2024/02/08 09:31:16;;;;;;;29.73;11.07;;;;;;;;;;4992596;28;20030;-66
2024/02/08 09:33:45;;;;;;;28.10;11.18;;;;;;;;;;4991622;28;20053;-65
2024/02/08 09:36:14;;;;;;;31.23;10.98;;;;;;;;;;4986611;28;20034;-65
2024/02/08 09:38:44;;;;;;;32.67;11.18;;;;;;;;;;4988585;28;20045;-65
2024/02/08 09:41:23;;;;;;;33.03;11.13;;;;;;;;;;4986220;28;20034;-64
2024/02/08 09:43:53;;;;;;;24.08;9.57;;;;;;;;;;4983407;28;20044;-65
2024/02/08 09:48:59;;;;;;;31.50;11.52;;;;;;;;;;4986187;28;20077;-65
2024/02/08 09:51:25;;;;;;;25.55;9.75;;;;;;;;;;4982585;28;20065;-63
2024/02/08 09:53:51;;;;;;;24.75;9.90;;;;;;;;;;4982668;28;20489;-65
2024/02/08 09:56:28;;;;;;;24.85;9.82;;;;;;;;;;4987822;28;20030;-66
2024/02/08 09:59:03;;;;;;;23.35;9.90;;;;;;;;;;4996597;28;20061;-66
2024/02/08 10:01:42;;;;;;;27.13;9.75;;;;;;;;;;4989651;28;20327;-65
2024/02/08 10:04:16;;;;;;;25.20;10.25;;;;;;;;;;4989434;28;20023;-64
2024/02/08 10:09:34;;;;;;;23.88;9.82;;;;;;;;;;4996826;28;20089;-64
2024/02/08 10:12:06;;;;;;;28.17;11.45;;;;;;;;;;4996990;28;20076;-65
2024/02/08 10:14:36;;;;;;;22.38;9.88;;;;;;;;;;4990588;28;20133;-64
2024/02/08 10:22:54;;;;;;;31.45;12.35;;;;;;;;;;4995424;28;20091;-65
2024/02/08 10:28:09;;;;;;;29.98;11.63;;;;;;;;;;4993740;28;20193;-65
2024/02/08 10:30:38;;;;;;;23.15;9.32;;;;;;;;;;4990478;28;20026;-64
2024/02/08 10:33:04;;;;;;;28.70;11.18;;;;;;;;;;4992401;28;20030;-66
2024/02/08 10:35:39;;;;;;;24.83;10.40;;;;;;;;;;4996326;28;20030;-65
2024/02/08 10:38:08;;;;;;;24.92;11.10;;;;;;;;;;4993341;28;20180;-66
2024/02/08 10:40:35;;;;;;;25.50;10.45;;;;;;;;;;4992474;28;20022;-64
2024/02/08 10:43:17;;;;;;;29.15;12.55;;;;;;;;;;4984802;28;20512;-64
2024/02/08 10:45:52;;;;;;;33.28;13.57;;;;;;;;;;4980884;28;20049;-64
2024/02/08 10:48:19;;;;;;;32.15;12.35;;;;;;;;;;4988412;28;20033;-65
2024/02/08 10:50:45;;;;;;;26.58;11.35;;;;;;;;;;4994193;28;20026;-66
2024/02/08 10:53:18;;;;;;;27.77;9.45;;;;;;;;;;4981543;28;20425;-65
2024/02/08 10:55:52;;;;;;;28.42;10.35;;;;;;;;;;4983597;28;20030;-66
2024/02/08 10:58:27;;;;;;;24.20;10.30;;;;;;;;;;4983781;28;20030;-66
2024/02/08 11:03:52;;;;;;;23.42;9.73;;;;;;;;;;4993656;28;20049;-66
2024/02/08 11:06:31;;;;;;;24.70;9.40;;;;;;;;;;4981990;28;20092;-64
2024/02/08 11:09:14;;;;;;;20.88;8.32;;;;;;;;;;4986621;28;20038;-64
2024/02/08 11:11:44;;;;;;;29.02;10.25;;;;;;;;;;4989837;28;20115;-65
2024/02/08 11:14:12;;;;;;;20.83;9.18;;;;;;;;;;4989969;28;20038;-65
2024/02/08 11:16:41;;;;;;;25.60;10.45;;;;;;;;;;4992516;28;20041;-66
2024/02/08 11:19:09;;;;;;;22.60;9.05;;;;;;;;;;4995340;28;20027;-65
2024/02/08 11:21:44;;;;;;;20.58;10.10;;;;;;;;;;4992615;28;20030;-65
2024/02/08 11:24:13;;;;;;;27.90;10.52;;;;;;;;;;4997339;28;20097;-64
2024/02/08 11:26:49;;;;;;;26.67;10.32;;;;;;;;;;4995753;28;20069;-65
2024/02/08 11:29:18;;;;;;;26.60;10.18;;;;;;;;;;4998349;28;20034;-65
2024/02/08 11:31:46;;;;;;;19.90;9.48;;;;;;;;;;4994526;28;20433;-65
2024/02/08 11:34:15;;;;;;;20.38;9.18;;;;;;;;;;4999428;28;20026;-65
2024/02/08 11:36:52;;;;;;;19.75;9.23;;;;;;;;;;5002807;28;20450;-66
2024/02/08 11:39:27;;;;;;;22.95;9.60;;;;;;;;;;4995371;28;20037;-66
2024/02/08 11:41:57;;;;;;;20.73;9.35;;;;;;;;;;4990787;28;20031;-64
2024/02/08 11:44:26;;;;;;;18.88;8.18;;;;;;;;;;4994350;28;20034;-65
2024/02/08 11:47:17;;;;;;;15.88;7.85;;;;;;;;;;4991464;28;20032;-66
2024/02/08 11:49:52;;;;;;;22.10;9.82;;;;;;;;;;4991541;28;20035;-66
2024/02/08 11:52:19;;;;;;;21.55;9.13;;;;;;;;;;4993607;28;20034;-65
2024/02/08 11:54:45;;;;;;;20.75;9.30;;;;;;;;;;4990137;28;20483;-65
2024/02/08 11:57:13;;;;;;;19.83;9.35;;;;;;;;;;4991522;28;20038;-66
2024/02/08 11:59:39;;;;;;;17.38;8.63;;;;;;;;;;4993095;28;20103;-65
2024/02/08 12:02:08;;;;;;;19.80;7.80;;;;;;;;;;4988521;28;20405;-66
2024/02/08 12:04:37;;;;;;;14.70;7.85;;;;;;;;;;4993273;28;20481;-66
2024/02/08 12:07:04;;;;;;;18.92;9.00;;;;;;;;;;4994765;28;20562;-66
2024/02/08 12:09:38;;;;;;;17.00;8.52;;;;;;;;;;4994814;28;20026;-65
2024/02/08 12:12:04;;;;;;;14.15;7.93;;;;;;;;;;4990765;28;20030;-64
2024/02/08 12:14:30;;;;;;;16.38;8.20;;;;;;;;;;4996296;28;20062;-65
2024/02/08 12:16:57;;;;;;;18.85;8.13;;;;;;;;;;5000025;28;20022;-63
2024/02/08 12:19:24;;;;;;;14.82;7.43;;;;;;;;;;4994387;28;20073;-65
2024/02/08 12:21:57;;;;;;;15.48;8.00;;;;;;;;;;4991401;28;20438;-66
2024/02/08 12:24:24;;;;;;;14.18;7.18;;;;;;;;;;4990971;28;20030;-66
2024/02/08 12:26:55;;;;;;;17.25;8.10;;;;;;;;;;4991173;28;20032;-66
2024/02/08 12:29:24;;;;;;;17.35;9.13;;;;;;;;;;4993218;28;20065;-66
2024/02/08 12:31:54;;;;;;;20.55;9.20;;;;;;;;;;4986716;28;20034;-65
2024/02/08 12:34:24;;;;;;;17.77;9.10;;;;;;;;;;4987498;28;20396;-65
2024/02/08 12:36:50;;;;;;;23.77;8.68;;;;;;;;;;4984359;28;20122;-66
2024/02/08 12:39:18;;;;;;;17.25;8.60;;;;;;;;;;4986717;28;20034;-66
2024/02/08 12:41:49;;;;;;;16.90;8.35;;;;;;;;;;4985868;28;20034;-65
2024/02/08 12:44:15;;;;;;;19.40;9.48;;;;;;;;;;4981269;28;20056;-65
2024/02/08 12:46:47;;;;;;;22.30;9.32;;;;;;;;;;4984630;28;20473;-66
2024/02/08 12:49:15;;;;;;;17.17;9.35;;;;;;;;;;4991937;28;20038;-65
2024/02/08 12:51:41;;;;;;;17.70;8.98;;;;;;;;;;4988567;28;20073;-66
2024/02/08 12:54:07;;;;;;;18.77;9.57;;;;;;;;;;4999690;28;20038;-66
2024/02/08 12:56:36;;;;;;;18.75;10.13;;;;;;;;;;4988693;28;20095;-66
2024/02/08 12:59:03;;;;;;;22.25;10.95;;;;;;;;;;4986132;28;20045;-66
2024/02/08 13:01:38;;;;;;;20.58;10.02;;;;;;;;;;4986890;28;20439;-66
2024/02/08 13:04:04;;;;;;;21.05;10.43;;;;;;;;;;4989402;28;20060;-66
2024/02/08 13:06:30;;;;;;;16.92;9.63;;;;;;;;;;4991210;28;20506;-66
2024/02/08 13:09:25;;;;;;;20.80;10.95;;;;;;;;;;4991394;28;20031;-65
2024/02/08 13:11:51;;;;;;;;;;;;;;;;;;4987240;28;20500;-65
2024/02/08 13:14:20;;;;;;;20.25;11.10;;;;;;;;;;4990301;28;19921;-66
2024/02/08 13:16:47;;;;;;;25.45;12.10;;;;;;;;;;4986818;28;20034;-65
2024/02/08 13:19:19;;;;;;;21.25;12.18;;;;;;;;;;4989886;28;20425;-65
2024/02/08 13:21:45;;;;;;;21.45;11.82;;;;;;;;;;4982142;28;20396;-65
2024/02/08 13:24:11;;;;;;;19.13;9.73;;;;;;;;;;4988432;28;20041;-65
2024/02/08 13:26:37;;;;;;;21.48;10.63;;;;;;;;;;4987258;28;20491;-65
2024/02/08 13:29:04;;;;;;;20.48;11.32;;;;;;;;;;4979247;28;20730;-63
2024/02/08 13:31:30;;;;;;;24.38;10.73;;;;;;;;;;4983360;28;20084;-66
2024/02/08 13:34:02;;;;;;;23.80;11.27;;;;;;;;;;5088253;27;20906;-66
2024/02/08 13:36:28;;;;;;;23.75;11.27;;;;;;;;;;5089047;28;20038;-64
2024/02/08 13:38:54;;;;;;;16.85;10.85;;;;;;;;;;5087378;28;20690;-65
2024/02/08 13:41:21;;;;;;;22.95;10.95;;;;;;;;;;5086059;28;20096;-66
2024/02/08 13:43:48;;;;;;;22.75;10.88;;;;;;;;;;5083906;28;20032;-66
2024/02/08 13:46:15;;;;;;;21.58;10.02;;;;;;;;;;5085877;28;20047;-66
2024/02/08 13:48:41;;;;;;;17.92;10.32;;;;;;;;;;5087051;28;20592;-66
2024/02/08 13:51:07;;;;;;;18.27;9.73;;;;;;;;;;5077304;28;20036;-66
2024/02/08 13:53:35;;;;;;;16.95;9.63;;;;;;;;;;5085319;28;20035;-65
2024/02/08 13:56:05;;;;;;;21.70;9.70;;;;;;;;;;5082666;28;20021;-61
2024/02/08 13:58:35;;;;;;;25.38;9.45;;;;;;;;;;5086434;28;20024;-60
2024/02/08 14:01:01;;;;;;;15.13;8.60;;;;;;;;;;5084424;28;20386;-60
2024/02/08 14:03:29;;;;;;;22.13;9.88;;;;;;;;;;5081868;28;20678;-62
2024/02/08 14:05:55;;;;;;;18.10;9.20;;;;;;;;;;5083575;28;20058;-61
2024/02/08 14:08:27;;;;;;;22.27;11.40;;;;;;;;;;5077993;28;20398;-61
2024/02/08 14:10:53;;;;;;;19.48;11.65;;;;;;;;;;5081140;28;20036;-61
2024/02/08 14:13:28;;;;;;;17.30;10.23;;;;;;;;;;5081892;28;20051;-61
2024/02/08 14:15:55;;;;;;;21.75;13.38;;;;;;;;;;5086693;28;20103;-61
2024/02/08 14:18:30;;;;;;;18.80;11.23;;;;;;;;;;5085540;28;20070;-61
2024/02/08 14:20:56;;;;;;;20.73;11.93;;;;;;;;;;5086540;28;20029;-61
2024/02/08 14:23:38;;;;;;;28.88;12.15;;;;;;;;;;5075589;28;20429;-61
2024/02/08 14:28:31;;;;;;;19.25;10.15;;;;;;;;;;5084458;28;20062;-61
2024/02/08 14:31:00;;;;;;;17.13;10.35;;;;;;;;;;5084040;28;20068;-61
2024/02/08 14:33:26;;;;;;;20.42;10.00;;;;;;;;;;5079420;28;20073;-60
2024/02/08 14:35:54;;;;;;;17.45;9.75;;;;;;;;;;5085959;28;20107;-60
2024/02/08 14:38:19;;;;;;;19.02;10.38;;;;;;;;;;5078439;28;20115;-60
2024/02/08 14:40:47;;;;;;;15.93;8.82;;;;;;;;;;5082471;28;20167;-59
2024/02/08 14:43:25;;;;;;;16.65;8.68;;;;;;;;;;5080848;28;20065;-60
2024/02/08 14:45:53;;;;;;;16.75;8.27;;;;;;;;;;5070052;28;20037;-60
2024/02/08 14:48:22;;;;;;;15.98;9.13;;;;;;;;;;5071098;28;20551;-61
2024/02/08 14:50:53;;;;;;;14.77;9.02;;;;;;;;;;5068825;28;20483;-60
2024/02/08 14:53:25;;;;;;;19.63;9.38;;;;;;;;;;5066005;28;20028;-61
2024/02/08 14:55:55;;;;;;;17.20;8.50;;;;;;;;;;5064396;28;20021;-60
2024/02/08 14:58:33;;;;;;;16.10;8.43;;;;;;;;;;5067164;28;20036;-61
2024/02/08 15:01:08;;;;;;;17.73;9.50;;;;;;;;;;5067076;28;20051;-61
2024/02/08 15:03:38;;;;;;;17.90;8.68;;;;;;;;;;5067692;28;20029;-61
2024/02/08 15:06:05;;;;;;;17.63;9.40;;;;;;;;;;5062638;28;20093;-61
2024/02/08 15:08:45;;;;;;;15.07;8.40;;;;;;;;;;5067739;28;20537;-60
2024/02/08 15:12:00;;;;;;;18.63;10.07;;;;;;;;;;5066308;28;20081;-59
2024/02/08 15:14:02;;;;;;;14.77;8.77;;;;;;;;;;5065759;28;20051;-61
2024/02/08 15:16:31;;;;;;;15.88;9.30;;;;;;;;;;5060546;28;20024;-60
2024/02/08 15:18:57;;;;;;;23.08;10.77;;;;;;;;;;5063157;28;20057;-61
2024/02/08 15:21:24;;;;;;;20.92;10.93;;;;;;;;;;5061853;28;20743;-61
2024/02/08 15:26:47;;;;;;;21.15;10.48;;;;;;;;;;5070097;28;20483;-61
2024/02/08 15:29:32;;;;;;;24.85;11.48;;;;;;;;;;5075080;28;20021;-61
2024/02/08 15:32:02;;;;;;;22.85;12.10;;;;;;;;;;5076225;28;20045;-61
2024/02/08 15:34:46;;;;;;;25.35;11.90;;;;;;;;;;5070937;28;20024;-60
2024/02/08 15:37:28;;;;;;;14.73;8.05;;;;;;;;;;5065756;28;20056;-60
2024/02/08 15:40:09;;;;;;;26.00;12.85;;;;;;;;;;5067863;28;20130;-61
2024/02/08 15:42:39;;;;;;;19.73;11.50;;;;;;;;;;5064436;28;20048;-58
2024/02/08 15:45:10;;;;;;;24.63;13.68;;;;;;;;;;5072363;28;20033;-60
2024/02/08 15:47:38;;;;;;;19.92;10.90;;;;;;;;;;5071029;28;20021;-60
2024/02/08 15:50:14;;;;;;;21.67;11.57;;;;;;;;;;5070960;28;20016;-59
2024/02/08 15:52:42;;;;;;;24.58;12.05;;;;;;;;;;5069070;28;20039;-61
2024/02/08 15:55:17;;;;;;;20.25;12.40;;;;;;;;;;5069472;28;20020;-60
2024/02/08 15:57:53;;;;;;;19.60;11.18;;;;;;;;;;5066491;28;20559;-58
2024/02/08 16:01:03;;;;;;;19.90;11.68;;;;;;;;;;5069556;28;20035;-60
2024/02/08 16:03:25;;;;;;;22.98;11.60;;;;;;;;;;5066493;28;20051;-61
2024/02/08 16:05:55;;;;;;;20.35;11.40;;;;;;;;;;5070585;28;20042;-61
2024/02/08 16:08:32;;;;;;;18.33;11.15;;;;;;;;;;5067050;28;20169;-61
2024/02/08 16:11:05;;;;;;;24.92;11.70;;;;;;;;;;5068426;28;21998;-61
2024/02/08 16:13:34;;;;;;;16.98;9.82;;;;;;;;;;5065388;28;20028;-61
2024/02/08 16:16:07;;;;;;;20.75;10.93;;;;;;;;;;5065638;28;20032;-60
2024/02/08 16:18:36;;;;;;;23.08;11.55;;;;;;;;;;5069542;28;20509;-61
2024/02/08 16:21:05;;;;;;;25.77;12.73;;;;;;;;;;5070678;28;20112;-60
2024/02/08 16:23:46;;;;;;;23.60;12.52;;;;;;;;;;5065714;28;20107;-60
2024/02/08 16:26:12;;;;;;;26.88;12.55;;;;;;;;;;5068640;28;20031;-59
2024/02/08 16:28:45;;;;;;;22.25;11.95;;;;;;;;;;5068930;28;20502;-61
2024/02/08 16:33:47;;;;;;;19.35;9.93;;;;;;;;;;5063887;28;20044;-61
2024/02/08 16:38:57;;;;;;;11.75;8.00;;;;;;;;;;5063844;28;20120;-61
2024/02/08 16:41:24;;;;;;;20.65;7.65;;;;;;;;;;5063591;28;20017;-61
2024/02/08 16:43:56;;;;;;;15.70;7.93;;;;;;;;;;5069161;28;20073;-59
2024/02/08 16:46:35;;;;;;;20.48;7.82;;;;;;;;;;5070829;28;20033;-59
2024/02/08 16:49:04;;;;;;;17.27;7.68;;;;;;;;;;5063586;28;20043;-61
2024/02/08 16:51:37;;;;;;;30.88;9.43;;;;;;;;;;5066363;28;20021;-60
2024/02/08 16:54:17;;;;;;;18.00;7.03;;;;;;;;;;5065339;28;20513;-58
2024/02/08 16:56:44;;;;;;;21.40;8.05;;;;;;;;;;5071481;28;20047;-59
2024/02/08 16:59:20;;;;;;;23.27;7.50;;;;;;;;;;5072582;28;20389;-57
2024/02/08 17:02:04;;;;;;;13.65;8.13;;;;;;;;;;5067493;28;20474;-59
2024/02/08 17:04:48;;;;;;;15.80;7.55;;;;;;;;;;5060687;28;20041;-59
2024/02/08 17:09:58;;;;;;;;;;;;;;;;;;5070515;28;20085;-60
2024/02/08 17:12:44;;;;;;;17.17;7.57;;;;;;;;;;5066140;28;20305;-60